Home > Products > Valid Products > TAF

000
FTUS44 KJAN 271009 AAA
TAFMEI
TAF AMD
KMEI 271009Z 2710/2806 02013KT P6SM OVC012
     FM271300 04013KT P6SM SCT010 BKN250
     FM271600 04010KT P6SM SCT150
     FM280100 04009KT P6SM OVC100=



000
FTUS44 KJAN 271008 AAA
TAFHBG
TAF AMD
KHBG 271008Z 2710/2806 03003KT P6SM SKC
     FM271100 08010KT 5SM BR SCT010
     FM271400 08010KT P6SM SCT020 BKN150
     FM272200 09006KT P6SM VCSH OVC050
     FM280100 09012KT 6SM -RA BR OVC015=



000
FTUS44 KJAN 271008 AAA
TAFHBG
TAF AMD
KHBG 271008Z 2710/2806 03003KT P6SM SKC
     FM271100 08010KT 5SM BR SCT010
     FM271400 08010KT P6SM SCT020 BKN150
     FM272200 09006KT P6SM VCSH OVC050
     FM280100 09012KT 6SM -RA BR OVC015=



000
FTUS44 KJAN 271008 AAA
TAFGWO
TAF AMD
KGWO 271008Z 2710/2806 05008KT P6SM SKC
     FM271800 06014G20KT P6SM BKN150
     FM280100 05011KT P6SM OVC250=



000
FTUS44 KJAN 271008 AAA
TAFGWO
TAF AMD
KGWO 271008Z 2710/2806 05008KT P6SM SKC
     FM271800 06014G20KT P6SM BKN150
     FM280100 05011KT P6SM OVC250=



000
FTUS44 KJAN 270546 CCA
TAFGWO
TAF COR
KGWO 270546Z 2706/2806 06009KT P6SM BKN017
     FM271800 06014G20KT P6SM BKN150
     FM280100 05011KT P6SM OVC250=



000
FTUS44 KJAN 270539
TAFHBG
TAF
KHBG 270539Z 2706/2806 00000KT P6SM SKC
     FM271100 08010KT 5SM BR BKN006
     FM271400 08010KT P6SM SCT020 BKN150
     FM272200 09006KT P6SM VCSH OVC050
     FM280100 09012KT 6SM -RA BR OVC015=



000
FTUS44 KJAN 270539
TAFGWO
TAF
KGWO 270539Z 2706/2806 05011KT P6SM SKC
     FM271800 06014G20KT P6SM BKN150
     FM280100 05011KT P6SM OVC250=



000
FTUS44 KJAN 270539
TAFJAN
TAF
KJAN 270539Z 2706/2806 03007KT P6SM SKC
     FM271600 07012KT P6SM BKN150
     FM272300 04011KT P6SM VCSH OVC025=



000
FTUS44 KJAN 270539
TAFGLH
TAF
KGLH 270539Z 2706/2806 03012KT P6SM SKC
     FM271800 06018G24KT P6SM BKN150
     FM280100 04013KT P6SM BKN250=



000
FTUS44 KJAN 270539
TAFMEI
TAF
KMEI 270539Z 2706/2806 03011KT P6SM SKC
     FM271600 04010KT P6SM SCT150
     FM280100 04009KT P6SM OVC100=



000
FTUS44 KJAN 270539
TAFGLH
TAF
KGLH 270539Z 2706/2806 03012KT P6SM SKC
     FM271800 06018G24KT P6SM BKN150
     FM280100 04013KT P6SM BKN250=



000
FTUS44 KJAN 270539
TAFHBG
TAF
KHBG 270539Z 2706/2806 00000KT P6SM SKC
     FM271100 08010KT 5SM BR BKN006
     FM271400 08010KT P6SM SCT020 BKN150
     FM272200 09006KT P6SM VCSH OVC050
     FM280100 09012KT 6SM -RA BR OVC015=



000
FTUS44 KJAN 270539
TAFMEI
TAF
KMEI 270539Z 2706/2806 03011KT P6SM SKC
     FM271600 04010KT P6SM SCT150
     FM280100 04009KT P6SM OVC100=



000
FTUS44 KJAN 270539
TAFJAN
TAF
KJAN 270539Z 2706/2806 03007KT P6SM SKC
     FM271600 07012KT P6SM BKN150
     FM272300 04011KT P6SM VCSH OVC025=



000
FTUS44 KJAN 270539
TAFGWO
TAF
KGWO 270539Z 2706/2806 05011KT P6SM SKC
     FM271800 06014G20KT P6SM BKN150
     FM280100 05011KT P6SM OVC250=



000
FTUS44 KJAN 262320
TAFMEI
TAF
KMEI 262320Z 2700/2724 32005KT P6SM SCT250
     FM271600 04010KT P6SM SCT150=



000
FTUS44 KJAN 262320
TAFHBG
TAF
KHBG 262320Z 2700/2724 28005KT P6SM SCT050 BKN250
     FM271100 08010KT 5SM BR BKN006
     FM271400 08010KT P6SM BKN150
     FM272200 09006KT P6SM VCSH OVC050=



000
FTUS44 KJAN 262320
TAFJAN
TAF
KJAN 262320Z 2700/2724 35005KT P6SM SCT250
     FM271600 07012KT P6SM BKN150=



000
FTUS44 KJAN 262320
TAFMEI
TAF
KMEI 262320Z 2700/2724 32005KT P6SM SCT250
     FM271600 04010KT P6SM SCT150=



000
FTUS44 KJAN 262320
TAFHBG
TAF
KHBG 262320Z 2700/2724 28005KT P6SM SCT050 BKN250
     FM271100 08010KT 5SM BR BKN006
     FM271400 08010KT P6SM BKN150
     FM272200 09006KT P6SM VCSH OVC050=



000
FTUS44 KJAN 262320
TAFJAN
TAF
KJAN 262320Z 2700/2724 35005KT P6SM SCT250
     FM271600 07012KT P6SM BKN150=



000
FTUS44 KJAN 262320
TAFGLH
TAF
KGLH 262320Z 2700/2724 01011KT P6SM SCT250
     FM271800 06018G24KT P6SM BKN150=



000
FTUS44 KJAN 262320
TAFGLH
TAF
KGLH 262320Z 2700/2724 01011KT P6SM SCT250
     FM271800 06018G24KT P6SM BKN150=



000
FTUS44 KJAN 262320
TAFGWO
TAF
KGWO 262320Z 2700/2724 01008KT P6SM SCT250
     FM271800 06014G20KT P6SM BKN150=



000
FTUS44 KJAN 262320
TAFGWO
TAF
KGWO 262320Z 2700/2724 01008KT P6SM SCT250
     FM271800 06014G20KT P6SM BKN150=



000
FTUS44 KJAN 261721
TAFGLH
TAF
KGLH 261721Z 2618/2718 03017G24KT P6SM SCT250
     FM271400 06016G22KT P6SM BKN150=



000
FTUS44 KJAN 261721
TAFGWO
TAF
KGWO 261721Z 2618/2718 03010KT P6SM SCT250
     FM271300 06014KT P6SM BKN150=



000
FTUS44 KJAN 261721
TAFHBG
TAF
KHBG 261721Z 2618/2718 28011KT P6SM SCT020 SCT250
     FM271100 08010KT 6SM BR BKN006
     FM271400 08010KT P6SM BKN150=



000
FTUS44 KJAN 261721
TAFJAN
TAF
KJAN 261721Z 2618/2718 30008KT P6SM SCT250
     FM270300 02007KT P6SM SCT250
     FM271300 06012KT P6SM BKN150=



000
FTUS44 KJAN 261721
TAFMEI
TAF
KMEI 261721Z 2618/2718 30008KT P6SM SCT250
     FM270400 04010KT P6SM SCT150=



000
FTUS44 KJAN 261721
TAFGWO
TAF
KGWO 261721Z 2618/2718 03010KT P6SM SCT250
     FM271300 06014KT P6SM BKN150=



000
FTUS44 KJAN 261721
TAFJAN
TAF
KJAN 261721Z 2618/2718 30008KT P6SM SCT250
     FM270300 02007KT P6SM SCT250
     FM271300 06012KT P6SM BKN150=



000
FTUS44 KJAN 261721
TAFHBG
TAF
KHBG 261721Z 2618/2718 28011KT P6SM SCT020 SCT250
     FM271100 08010KT 6SM BR BKN006
     FM271400 08010KT P6SM BKN150=



000
FTUS44 KJAN 261721
TAFMEI
TAF
KMEI 261721Z 2618/2718 30008KT P6SM SCT250
     FM270400 04010KT P6SM SCT150=



000
FTUS44 KJAN 261721
TAFGLH
TAF
KGLH 261721Z 2618/2718 03017G24KT P6SM SCT250
     FM271400 06016G22KT P6SM BKN150=



000
FTUS44 KJAN 261326 AAA
TAFGWO
TAF AMD
KGWO 261326Z 2613/2712 36005KT P6SM SCT015
     FM261500 36010KT P6SM FEW025
     FM270000 03008KT P6SM FEW120 BKN200=



000
FTUS44 KJAN 261326 AAA
TAFGWO
TAF AMD
KGWO 261326Z 2613/2712 36005KT P6SM SCT015
     FM261500 36010KT P6SM FEW025
     FM270000 03008KT P6SM FEW120 BKN200=



000
FTUS44 KJAN 261127 CCA
TAFGLH
TAF COR
KGLH 261127Z 2611/2712 00000KT 2SM BR SKC
     FM261330 35011KT P6SM FEW025
     FM270000 02009KT P6SM FEW050 SCT120 BKN200=



000
FTUS44 KJAN 261126
TAFGWO
TAF
KGWO 261126Z 2612/2712 19003KT 3/4SM BR VV005
     FM261330 36005KT P6SM SCT015
     FM261500 36010KT P6SM FEW025
     FM270000 03008KT P6SM FEW120 BKN200=



000
FTUS44 KJAN 261126
TAFJAN
TAF
KJAN 261126Z 2612/2712 18004KT P6SM FEW120
     FM261330 26005KT P6SM SCT015
     FM261430 30008KT P6SM FEW025
     FM270000 03006KT P6SM FEW120 SCT200=



000
FTUS44 KJAN 261126
TAFHBG
TAF
KHBG 261126Z 2612/2712 29003KT P6SM SKC
     FM261300 28005KT 6SM BR BKN009
     FM261430 29007KT P6SM FEW025
     FM270000 36004KT P6SM FEW200 SCT250
     FM271000 VRB04KT 5SM BR BKN006=



000
FTUS44 KJAN 261126
TAFMEI
TAF
KMEI 261126Z 2612/2712 00000KT P6SM SKC
     FM261330 24004KT P6SM SCT015
     FM261430 28009KT P6SM FEW025
     FM270000 34004KT P6SM SCT200=



000
FTUS44 KJAN 261126
TAFGLH
TAF
KGLH 261126Z 2612/2712 27004KT P6SM SKC
     FM261330 35011KT P6SM FEW025
     FM270000 02009KT P6SM FEW050 SCT120 BKN200=



000
FTUS44 KJAN 261126
TAFHBG
TAF
KHBG 261126Z 2612/2712 29003KT P6SM SKC
     FM261300 28005KT 6SM BR BKN009
     FM261430 29007KT P6SM FEW025
     FM270000 36004KT P6SM FEW200 SCT250
     FM271000 VRB04KT 5SM BR BKN006=



000
FTUS44 KJAN 261126
TAFGWO
TAF
KGWO 261126Z 2612/2712 19003KT 3/4SM BR VV005
     FM261330 36005KT P6SM SCT015
     FM261500 36010KT P6SM FEW025
     FM270000 03008KT P6SM FEW120 BKN200=



000
FTUS44 KJAN 261126
TAFMEI
TAF
KMEI 261126Z 2612/2712 00000KT P6SM SKC
     FM261330 24004KT P6SM SCT015
     FM261430 28009KT P6SM FEW025
     FM270000 34004KT P6SM SCT200=



000
FTUS44 KJAN 261126
TAFGLH
TAF
KGLH 261126Z 2612/2712 27004KT P6SM SKC
     FM261330 35011KT P6SM FEW025
     FM270000 02009KT P6SM FEW050 SCT120 BKN200=



000
FTUS44 KJAN 261126
TAFJAN
TAF
KJAN 261126Z 2612/2712 18004KT P6SM FEW120
     FM261330 26005KT P6SM SCT015
     FM261430 30008KT P6SM FEW025
     FM270000 03006KT P6SM FEW120 SCT200=



000
FTUS44 KJAN 261008 AAA
TAFHBG
TAF AMD
KHBG 261008Z 2610/2706 VRB03KT 5SM BR FEW004
     FM261130 26003KT 1/2SM FG VV002
     FM261330 27004KT 6SM BR BKN015
     FM261500 28007KT P6SM FEW025
     FM270000 33004KT P6SM FEW200 SCT250=



000
FTUS44 KJAN 260520
TAFMEI
TAF
KMEI 260520Z 2606/2706 22005KT P6SM SKC
     FM261030 22003KT 2SM BR BKN004
     FM261330 24004KT P6SM BKN015
     FM261430 28009KT P6SM FEW025
     FM270000 34004KT P6SM SCT200=



000
FTUS44 KJAN 260520
TAFHBG
TAF
KHBG 260520Z 2606/2706 VRB03KT P6SM SCT250
     FM260830 25003KT 1SM BR BKN005
     FM261000 26003KT 1/2SM FG VV002
     FM261330 27004KT 6SM BR BKN015
     FM261500 28007KT P6SM FEW025
     FM270000 33004KT P6SM FEW200 SCT250=



000
FTUS44 KJAN 260520
TAFHBG
TAF
KHBG 260520Z 2606/2706 VRB03KT P6SM SCT250
     FM260830 25003KT 1SM BR BKN005
     FM261000 26003KT 1/2SM FG VV002
     FM261330 27004KT 6SM BR BKN015
     FM261500 28007KT P6SM FEW025
     FM270000 33004KT P6SM FEW200 SCT250=



000
FTUS44 KJAN 260520
TAFMEI
TAF
KMEI 260520Z 2606/2706 22005KT P6SM SKC
     FM261030 22003KT 2SM BR BKN004
     FM261330 24004KT P6SM BKN015
     FM261430 28009KT P6SM FEW025
     FM270000 34004KT P6SM SCT200=



000
FTUS44 KJAN 260520
TAFJAN
TAF
KJAN 260520Z 2606/2706 20005KT P6SM SKC
     FM261030 22004KT 5SM BR BKN005
     FM261330 26005KT P6SM BKN015
     FM261430 30008KT P6SM FEW025
     FM270000 01003KT P6SM FEW120 SCT200=



000
FTUS44 KJAN 260520
TAFGLH
TAF
KGLH 260520Z 2606/2706 23009KT P6SM SKC
     FM260900 29008KT 6SM BR BKN007
     FM261330 35011KT P6SM FEW025
     FM270000 02009KT P6SM FEW050 SCT120 BKN200=



000
FTUS44 KJAN 260520
TAFGWO
TAF
KGWO 260520Z 2606/2706 22007KT P6SM SKC
     FM261000 25005KT 6SM BR BKN005
     FM261330 36005KT P6SM BKN015
     FM261500 36010KT P6SM FEW025
     FM270000 03008KT P6SM FEW120 BKN200=



000
FTUS44 KJAN 260520
TAFGWO
TAF
KGWO 260520Z 2606/2706 22007KT P6SM SKC
     FM261000 25005KT 6SM BR BKN005
     FM261330 36005KT P6SM BKN015
     FM261500 36010KT P6SM FEW025
     FM270000 03008KT P6SM FEW120 BKN200=



000
FTUS44 KJAN 260520
TAFJAN
TAF
KJAN 260520Z 2606/2706 20005KT P6SM SKC
     FM261030 22004KT 5SM BR BKN005
     FM261330 26005KT P6SM BKN015
     FM261430 30008KT P6SM FEW025
     FM270000 01003KT P6SM FEW120 SCT200=



000
FTUS44 KJAN 260520
TAFGLH
TAF
KGLH 260520Z 2606/2706 23009KT P6SM SKC
     FM260900 29008KT 6SM BR BKN007
     FM261330 35011KT P6SM FEW025
     FM270000 02009KT P6SM FEW050 SCT120 BKN200=



000
FTUS44 KJAN 252320
TAFGWO
TAF
KGWO 252320Z 2600/2624 23010KT P6SM FEW025
     FM260900 26003KT P6SM OVC003
     FM261500 34005KT P6SM SCT015=



000
FTUS44 KJAN 252320
TAFJAN
TAF
KJAN 252320Z 2600/2624 22008KT P6SM SKC
     FM260900 VRB03KT 4SM BR BKN005
     FM261500 30005KT P6SM SCT015=



000
FTUS44 KJAN 252320
TAFMEI
TAF
KMEI 252320Z 2600/2624 22008KT P6SM BKN120
     FM260900 23003KT 2SM BR BKN005
     FM261600 30008KT P6SM SCT015=



000
FTUS44 KJAN 252320
TAFGLH
TAF
KGLH 252320Z 2600/2624 23010KT P6SM FEW025
     FM260900 29008KT 4SM BR BKN007
     FM261400 35011KT P6SM SCT015=



000
FTUS44 KJAN 252320
TAFHBG
TAF
KHBG 252320Z 2600/2624 22006KT P6SM BKN120
     FM260800 25003KT 1SM BR BKN005
     FM261000 25003KT 1/2SM FG OVC001
     FM261500 28006KT P6SM SCT015=



000
FTUS44 KJAN 252320
TAFJAN
TAF
KJAN 252320Z 2600/2624 22008KT P6SM SKC
     FM260900 VRB03KT 4SM BR BKN005
     FM261500 30005KT P6SM SCT015=



000
FTUS44 KJAN 252320
TAFGLH
TAF
KGLH 252320Z 2600/2624 23010KT P6SM FEW025
     FM260900 29008KT 4SM BR BKN007
     FM261400 35011KT P6SM SCT015=



000
FTUS44 KJAN 252320
TAFGWO
TAF
KGWO 252320Z 2600/2624 23010KT P6SM FEW025
     FM260900 26003KT P6SM OVC003
     FM261500 34005KT P6SM SCT015=



000
FTUS44 KJAN 252320
TAFMEI
TAF
KMEI 252320Z 2600/2624 22008KT P6SM BKN120
     FM260900 23003KT 2SM BR BKN005
     FM261600 30008KT P6SM SCT015=



000
FTUS44 KJAN 252320
TAFHBG
TAF
KHBG 252320Z 2600/2624 22006KT P6SM BKN120
     FM260800 25003KT 1SM BR BKN005
     FM261000 25003KT 1/2SM FG OVC001
     FM261500 28006KT P6SM SCT015=



000
FTUS44 KJAN 251744
TAFGLH
TAF
KGLH 251744Z 2518/2618 23013G22KT 5SM BR SCT010 BKN018
     FM252100 24009KT P6SM FEW020
     FM261400 35007KT P6SM SCT015=



000
FTUS44 KJAN 251744
TAFMEI
TAF
KMEI 251744Z 2518/2618 22010G20KT P6SM VCTS BKN020 BKN030CB
     FM252300 21005KT P6SM FEW025
     FM260900 VRB03KT 2SM BR SCT005
     FM261600 30005KT P6SM SCT015=



000
FTUS44 KJAN 251744
TAFJAN
TAF
KJAN 251744Z 2518/2618 22010G20KT P6SM VCTS BKN020 BKN030CB
     FM252200 21005KT P6SM FEW025
     FM260900 VRB03KT 4SM BR SCT005
     FM261500 30005KT P6SM SCT015=



000
FTUS44 KJAN 251744
TAFHBG
TAF
KHBG 251744Z 2518/2618 VRB04KT 6SM -RA VCTS SCT008 BKN015CB OVC050
     FM252100 23007KT P6SM VCSH SCT025 BKN040
     FM260000 19006KT P6SM SCT040
     FM260800 VRB03KT 1SM BR BKN005
     FM261500 28006KT P6SM SCT015=



000
FTUS44 KJAN 251744
TAFGWO
TAF
KGWO 251744Z 2518/2618 22013G22KT P6SM VCSH SCT012 BKN018
     FM252200 22009KT P6SM FEW025
     FM261500 34005KT P6SM SCT015=



000
FTUS44 KJAN 251254 AAB
TAFJAN
TAF AMD
KJAN 251254Z 2513/2612 19003KT P6SM BKN012
     FM251430 19011KT P6SM FEW010 BKN020 BKN040
     FM251600 20012G19KT P6SM VCSH SCT025 BKN040
     FM251900 21016G22KT P6SM SCT030 BKN050
     FM260000 20008KT P6SM FEW050=



000
FTUS44 KJAN 251251 AAA
TAFHBG
TAF AMD
KHBG 251251Z 2513/2612 14004KT 5SM BR OVC007
     FM251430 19007KT P6SM BKN015 BKN030
     FM251530 22010G19KT P6SM VCTS SCT020 BKN030CB
     FM251730 23010G20KT 5SM -TSRA SCT025 BKN035CB
     FM252000 23007KT P6SM VCSH SCT025 BKN040
     FM260000 19006KT P6SM SCT040
     FM260900 VRB05KT 3SM BR BKN005=



000
FTUS44 KJAN 251121
TAFMEI
TAF
KMEI 251121Z 2512/2612 18006KT P6SM FEW008 SCT015 BKN040
     FM251330 19009KT 6SM BR SCT008 BKN015 BKN040
     FM251600 22015G23KT P6SM VCTS SCT025 BKN040CB
     FM260000 20009KT P6SM FEW040=



000
FTUS44 KJAN 251121
TAFGLH
TAF
KGLH 251121Z 2512/2612 19010KT P6SM BKN009 BKN100
     FM251430 21014KT P6SM BKN015 BKN100
     FM251530 22018G26KT P6SM FEW025 SCT040
     FM260000 24012KT P6SM FEW050
     FM260800 29006KT P6SM SKC=



000
FTUS44 KJAN 251121
TAFJAN
TAF
KJAN 251121Z 2512/2612 17008KT P6SM FEW008 SCT015 BKN040
     FM251400 19011KT P6SM FEW010 BKN020 BKN040
     FM251600 20012G19KT P6SM VCSH SCT025 BKN040
     FM251900 21016G22KT P6SM SCT030 BKN050
     FM260000 20008KT P6SM FEW050=



000
FTUS44 KJAN 251121
TAFHBG
TAF
KHBG 251121Z 2512/2612 17005KT 5SM BR BKN008
     FM251400 19007KT P6SM BKN015 BKN030
     FM251530 22010G19KT P6SM VCTS SCT020 BKN030CB
     FM251730 23010G20KT 5SM -TSRA SCT025 BKN035CB
     FM252000 23007KT P6SM VCSH SCT025 BKN040
     FM260000 19006KT P6SM SCT040
     FM260900 VRB05KT 3SM BR BKN005=



000
FTUS44 KJAN 251121
TAFGWO
TAF
KGWO 251121Z 2512/2612 15006KT P6SM VCSH SCT008 SCT015 BKN100
     FM251300 18010KT P6SM BKN010 BKN100
     FM251530 22015G24KT P6SM FEW020 SCT040
     FM260000 22008KT P6SM SKC=



000
FTUS44 KJAN 251121
TAFJAN
TAF
KJAN 251121Z 2512/2612 17008KT P6SM FEW008 SCT015 BKN040
     FM251400 19011KT P6SM FEW010 BKN020 BKN040
     FM251600 20012G19KT P6SM VCSH SCT025 BKN040
     FM251900 21016G22KT P6SM SCT030 BKN050
     FM260000 20008KT P6SM FEW050=



000
FTUS44 KJAN 251121
TAFGWO
TAF
KGWO 251121Z 2512/2612 15006KT P6SM VCSH SCT008 SCT015 BKN100
     FM251300 18010KT P6SM BKN010 BKN100
     FM251530 22015G24KT P6SM FEW020 SCT040
     FM260000 22008KT P6SM SKC=



000
FTUS44 KJAN 251121
TAFGLH
TAF
KGLH 251121Z 2512/2612 19010KT P6SM BKN009 BKN100
     FM251430 21014KT P6SM BKN015 BKN100
     FM251530 22018G26KT P6SM FEW025 SCT040
     FM260000 24012KT P6SM FEW050
     FM260800 29006KT P6SM SKC=



000
FTUS44 KJAN 251121
TAFMEI
TAF
KMEI 251121Z 2512/2612 18006KT P6SM FEW008 SCT015 BKN040
     FM251330 19009KT 6SM BR SCT008 BKN015 BKN040
     FM251600 22015G23KT P6SM VCTS SCT025 BKN040CB
     FM260000 20009KT P6SM FEW040=



000
FTUS44 KJAN 251121
TAFHBG
TAF
KHBG 251121Z 2512/2612 17005KT 5SM BR BKN008
     FM251400 19007KT P6SM BKN015 BKN030
     FM251530 22010G19KT P6SM VCTS SCT020 BKN030CB
     FM251730 23010G20KT 5SM -TSRA SCT025 BKN035CB
     FM252000 23007KT P6SM VCSH SCT025 BKN040
     FM260000 19006KT P6SM SCT040
     FM260900 VRB05KT 3SM BR BKN005=



000
FTUS44 KJAN 250546 RRA
TAFJAN
TAF
KJAN 250546Z 2506/2606 17010KT P6SM BKN010 OVC060
     FM250700 19015G25KT 5SM -SHRA VCTS BKN015 OVC025CB
     FM250800 21015G25KT 4SM TSRA BKN015 OVC025CB
     FM251100 19012KT P6SM VCSH SCT008 BKN015
     FM251500 20014G21KT P6SM SCT020 BKN035
     FM260000 20009KT P6SM FEW040=



000
FTUS44 KJAN 250546 RRA
TAFMEI
TAF
KMEI 250546Z 2506/2606 17007KT P6SM BKN010 BKN030
     FM250830 18015G25KT 5SM -SHRA VCTS BKN015 OVC025CB
     FM250930 21015G25KT 4SM TSRA BKN015 OVC025CB
     FM251200 19012KT P6SM VCSH SCT008 BKN015
     FM251600 22012G19KT P6SM SCT020 BKN035
     FM260000 20009KT P6SM FEW040=



000
FTUS44 KJAN 250546 RRA
TAFGLH
TAF
KGLH 250546Z 2506/2606 VRB10KT 2SM TSRA BKN010 OVC025CB
     FM250630 VRB06KT 5SM -TSRA BKN015 OVC030CB
     FM250800 18010G20KT P6SM VCSH SCT008 BKN015 BKN030
     FM251500 21017G26KT P6SM FEW020 SCT040
     FM260000 25010KT P6SM SKC=



000
FTUS44 KJAN 250546 RRA
TAFGWO
TAF
KGWO 250546Z 2506/2606 VRB20G40KT 1SM +TSRA SCT010 BKN020CB OVC030
     FM250630 VRB10KT 2SM TSRA BKN010 OVC025CB
     FM250730 VRB06KT 5SM -TSRA BKN015 OVC030CB
     FM250830 18009KT P6SM VCSH SCT008 BKN015 BKN030
     FM251500 22014G23KT P6SM FEW020 SCT040
     FM260000 22006KT P6SM SKC=



000
FTUS44 KJAN 250546 RRA
TAFHBG
TAF
KHBG 250546Z 2506/2606 16007KT P6SM OVC009
     FM250800 17007KT 5SM BR OVC006
     FM251100 19011KT P6SM VCTS SCT008 BKN015CB
     FM251600 23010G18KT P6SM VCTS SCT015 BKN025CB
     FM252100 24010G20KT P6SM SCT030
     FM260000 20006KT P6SM FEW030=



000
FTUS44 KJAN 250419 AAB
TAFJAN
TAF AMD
KJAN 250419Z 2504/2524 17010KT P6SM BKN010 OVC060
     FM250800 19015G25KT 4SM TSRA BR BKN015 OVC025CB
     FM251100 19012KT P6SM VCSH SCT008 BKN015=



000
FTUS44 KJAN 250419 AAB
TAFJAN
TAF AMD
KJAN 250419Z 2504/2524 17010KT P6SM BKN010 OVC060
     FM250800 19015G25KT 4SM TSRA BR BKN015 OVC025CB
     FM251100 19012KT P6SM VCSH SCT008 BKN015=



000
FTUS44 KJAN 250356 AAA
TAFGLH
TAF AMD
KGLH 250356Z 2504/2524 12006KT 6SM BR VCTS BKN006 OVC030CB
     FM250515 19010G30KT 2SM TSRA BKN010 OVC025CB
     FM250700 19012KT P6SM VCSH SCT008 BKN015=



000
FTUS44 KJAN 250354 AAA
TAFGWO
TAF AMD
KGWO 250354Z 2504/2524 VRB10G20KT 1SM +TSRA BR BKN015 OVC030CB
     FM250500 09010KT 6SM BR VCTS SCT015 BKN025CB
     FM250630 15010G30KT 2SM TSRA BKN015 OVC025CB
     FM251000 19012KT P6SM VCSH SCT008 BKN015
     FM251600 21013G21KT P6SM SCT040=



000
FTUS44 KJAN 242320
TAFJAN
TAF
KJAN 242320Z 2500/2524 12008KT P6SM VCSH SCT020 SCT050 BKN100
     FM250600 16010G20KT 4SM TSRA BR BKN007 OVC015CB
     FM251100 19012KT P6SM VCSH SCT008 BKN015=



000
FTUS44 KJAN 242320
TAFHBG
TAF
KHBG 242320Z 2500/2524 12008KT P6SM VCTS SCT015CB BKN050 BKN100
     FM250600 14009KT 6SM -TSRA BR BKN007 OVC015CB
     FM251200 19011KT P6SM VCTS SCT008 BKN015CB=



000
FTUS44 KJAN 242320
TAFMEI
TAF
KMEI 242320Z 2500/2524 12008KT P6SM VCSH SCT050 SCT120
     FM250600 16009KT 5SM -TSRA BR BKN007 OVC015CB
     FM251200 19012KT P6SM VCTS SCT008 BKN015CB=



000
FTUS44 KJAN 242320
TAFGLH
TAF
KGLH 242320Z 2500/2524 13009KT P6SM -RA VCTS SCT020 SCT050CB BKN100
     FM250200 VRB20G40KT 4SM TSRA BR BKN007 OVC015CB
     FM250800 19012KT P6SM VCSH SCT008 BKN015=



000
FTUS44 KJAN 242320
TAFGWO
TAF
KGWO 242320Z 2500/2524 12008KT P6SM VCTS SCT020 SCT050CB BKN100
     FM250300 VRB20G40KT 4SM TSRA BR BKN007 OVC015CB
     FM251000 19012KT P6SM VCSH SCT008 BKN015
     FM251600 21013G21KT P6SM SCT040=



000
FTUS44 KJAN 241751
TAFGWO
TAF
KGWO 241751Z 2418/2518 12008KT P6SM VCTS SCT020 SCT050CB BKN100
     FM250300 VRB15G35KT 4SM TSRA BR BKN007 OVC015CB
     FM251000 19012KT P6SM VCSH SCT008 BKN015
     FM251600 21013G21KT P6SM SCT040=



000
FTUS44 KJAN 241751
TAFMEI
TAF
KMEI 241751Z 2418/2518 12008KT P6SM VCSH SCT050 SCT120
     FM250600 16009KT 5SM -TSRA BR BKN007 OVC015CB
     FM251200 19012KT P6SM VCTS SCT008 BKN015CB=



000
FTUS44 KJAN 241751
TAFHBG
TAF
KHBG 241751Z 2418/2518 12008KT P6SM VCTS SCT015CB BKN050 BKN100
     FM250600 14009KT 6SM -TSRA BR BKN007 OVC015CB
     FM251200 19011KT P6SM VCTS SCT008 BKN015CB=



000
FTUS44 KJAN 241751
TAFGLH
TAF
KGLH 241751Z 2418/2518 13009KT P6SM -RA VCTS SCT020 SCT050CB BKN100
     FM250200 VRB15G35KT 4SM TSRA BR BKN007 OVC015CB
     FM250800 19012KT P6SM VCSH SCT008 BKN015
     FM251500 21013G21KT P6SM SCT040=



000
FTUS44 KJAN 241751
TAFJAN
TAF
KJAN 241751Z 2418/2518 12008KT P6SM VCSH SCT020 SCT050 BKN100
     FM250600 16010G20KT 4SM TSRA BR BKN007 OVC015CB
     FM251100 19012KT P6SM VCSH SCT008 BKN015=



000
FTUS44 KJAN 241152 RRA
TAFMEI
TAF
KMEI 241152Z 2412/2512 03007KT P6SM FEW060
     FM241800 15008KT P6SM SCT050 OVC250
     FM250200 15007KT P6SM OVC050
     FM250500 16008KT P6SM OVC015
     FM250900 18010KT 5SM -SHRA BR OVC007=



000
FTUS44 KJAN 241152 RRA
TAFGWO
TAF
KGWO 241152Z 2412/2512 00000KT P6SM BKN200
     FM241500 13010KT P6SM BKN035 BKN200
     FM241800 15010G16KT P6SM BKN035
     FM250300 13014KT 4SM -TSRA BR OVC015CB
     FM250900 19012KT P6SM VCSH OVC015=



000
FTUS44 KJAN 241152 RRA
TAFGLH
TAF
KGLH 241152Z 2412/2512 14003KT P6SM BKN200
     FM241800 17010G16KT P6SM SCT035 BKN200
     FM242000 17012G18KT P6SM BKN035
     FM250200 13014KT 4SM -TSRA BR OVC015CB
     FM250800 19012KT P6SM VCSH OVC015=



000
FTUS44 KJAN 241152 RRA
TAFJAN
TAF
KJAN 241152Z 2412/2512 VRB05KT P6SM BKN200
     FM241500 14008KT P6SM SCT035 BKN200
     FM242100 16010KT P6SM BKN035
     FM250300 12012KT P6SM VCTS BKN020 OVC030CB
     FM250900 17010KT P6SM VCSH OVC015=



000
FTUS44 KJAN 241152 RRA
TAFHBG
TAF
KHBG 241152Z 2412/2512 00000KT P6SM BKN200
     FM241400 10003KT 5SM BR OVC250
     FM241500 11005KT P6SM OVC250
     FM241900 13005KT P6SM BKN035
     FM250800 15011KT P6SM OVC007
     FM251100 16009KT 1 1/2SM BR OVC003=



000
FTUS44 KJAN 241152 RRA
TAFMEI
TAF
KMEI 241152Z 2412/2512 03007KT P6SM FEW060
     FM241800 15008KT P6SM SCT050 OVC250
     FM250200 15007KT P6SM OVC050
     FM250500 16008KT P6SM OVC015
     FM250900 18010KT 5SM -SHRA BR OVC007=



000
FTUS44 KJAN 241152 RRA
TAFGLH
TAF
KGLH 241152Z 2412/2512 14003KT P6SM BKN200
     FM241800 17010G16KT P6SM SCT035 BKN200
     FM242000 17012G18KT P6SM BKN035
     FM250200 13014KT 4SM -TSRA BR OVC015CB
     FM250800 19012KT P6SM VCSH OVC015=



000
FTUS44 KJAN 241152 RRA
TAFHBG
TAF
KHBG 241152Z 2412/2512 00000KT P6SM BKN200
     FM241400 10003KT 5SM BR OVC250
     FM241500 11005KT P6SM OVC250
     FM241900 13005KT P6SM BKN035
     FM250800 15011KT P6SM OVC007
     FM251100 16009KT 1 1/2SM BR OVC003=



000
FTUS44 KJAN 241152 RRA
TAFGWO
TAF
KGWO 241152Z 2412/2512 00000KT P6SM BKN200
     FM241500 13010KT P6SM BKN035 BKN200
     FM241800 15010G16KT P6SM BKN035
     FM250300 13014KT 4SM -TSRA BR OVC015CB
     FM250900 19012KT P6SM VCSH OVC015=



000
FTUS44 KJAN 241152 RRA
TAFJAN
TAF
KJAN 241152Z 2412/2512 VRB05KT P6SM BKN200
     FM241500 14008KT P6SM SCT035 BKN200
     FM242100 16010KT P6SM BKN035
     FM250300 12012KT P6SM VCTS BKN020 OVC030CB
     FM250900 17010KT P6SM VCSH OVC015=



    US Dept of Commerce
    National Oceanic and Atmospheric Administration
    National Weather Service
    1325 East West Highway
    Silver Spring, MD 20910
    Page Author: NWS Internet Services Team
Disclaimer
Information Quality
Credits
Glossary
Privacy Policy
Freedom of Information Act (FOIA)
About Us
Career Opportunities